createdAt,value
2023-10-26T00:00:19.720Z,97210.72
2023-10-26T00:02:47.503Z,97196.22
2023-10-26T00:05:15.299Z,97198.28
2023-10-26T00:07:42.183Z,97204.44
2023-10-26T00:10:09.308Z,97202.78
2023-10-26T00:12:36.294Z,97203.47
2023-10-26T00:15:03.895Z,97211.94
2023-10-26T00:17:31.059Z,97221.41
2023-10-26T00:19:58.382Z,97194.56
2023-10-26T00:22:25.658Z,97211.38
2023-10-26T00:24:52.680Z,97196.47
2023-10-26T00:27:19.638Z,97213.41
2023-10-26T00:29:48.623Z,97216.94
2023-10-26T00:32:15.745Z,97216.66
2023-10-26T00:34:43.870Z,97209.28
2023-10-26T00:37:11.276Z,97201.69
2023-10-26T00:39:38.236Z,97213.59
2023-10-26T00:42:05.480Z,97210.06
2023-10-26T00:44:32.472Z,97214.69
2023-10-26T00:46:59.552Z,97211.09
2023-10-26T00:49:26.596Z,97219.72
2023-10-26T00:52:01.244Z,97198.94
2023-10-26T00:54:30.239Z,97212.28
2023-10-26T00:56:58.217Z,97218.69
2023-10-26T00:59:30.253Z,97208.28
2023-10-26T01:01:58.813Z,97200.47
2023-10-26T01:04:25.799Z,97212.00
2023-10-26T01:06:52.732Z,97213.34
2023-10-26T01:09:21.200Z,97208.00
2023-10-26T01:11:48.969Z,97211.88
2023-10-26T01:14:16.841Z,97205.03
2023-10-26T01:16:43.708Z,97216.88
2023-10-26T01:19:10.877Z,97213.88
2023-10-26T01:21:51.822Z,97213.63
2023-10-26T01:24:20.008Z,97216.38
2023-10-26T01:26:48.793Z,97212.00
2023-10-26T01:29:15.890Z,97216.66
2023-10-26T01:31:42.792Z,97221.63
2023-10-26T01:34:09.945Z,97211.31
2023-10-26T01:36:36.874Z,97223.66
2023-10-26T01:39:05.384Z,97214.75
2023-10-26T01:41:35.556Z,97221.34
2023-10-26T01:44:03.139Z,97218.63
2023-10-26T01:46:30.119Z,97208.50
2023-10-26T01:48:58.012Z,97216.97
2023-10-26T01:51:25.089Z,97221.34
2023-10-26T01:53:53.826Z,97220.78
2023-10-26T01:56:20.717Z,97203.66
2023-10-26T01:58:49.068Z,97221.88
2023-10-26T02:01:16.466Z,97207.78
2023-10-26T02:03:43.467Z,97211.72
2023-10-26T02:06:10.815Z,97210.47
2023-10-26T02:08:37.945Z,97210.38
2023-10-26T02:11:05.270Z,97214.31
2023-10-26T02:13:32.229Z,97219.94
2023-10-26T02:16:02.640Z,97217.06
2023-10-26T02:18:31.206Z,97225.09
2023-10-26T02:21:00.405Z,97214.16
2023-10-26T02:23:28.531Z,97203.44
2023-10-26T02:25:55.535Z,97222.06
2023-10-26T02:28:22.654Z,97230.00
2023-10-26T02:30:53.109Z,97205.75
2023-10-26T02:33:20.423Z,97219.03
2023-10-26T02:35:50.662Z,97220.41
2023-10-26T02:38:17.654Z,97224.06
2023-10-26T02:40:44.560Z,97212.94
2023-10-26T02:43:11.555Z,97227.44
2023-10-26T02:45:38.433Z,97230.16
2023-10-26T02:48:05.612Z,97226.06
2023-10-26T02:50:33.797Z,97221.09
2023-10-26T02:53:01.958Z,97228.34
2023-10-26T02:55:28.962Z,97205.84
2023-10-26T02:57:57.801Z,97228.69
2023-10-26T03:00:29.097Z,97219.63
2023-10-26T03:02:57.336Z,97223.59
2023-10-26T03:05:26.096Z,97212.19
2023-10-26T03:07:53.754Z,97219.31
2023-10-26T03:10:21.404Z,97221.47
2023-10-26T03:12:50.072Z,97230.09
2023-10-26T03:15:18.017Z,97225.78
2023-10-26T03:17:45.465Z,97232.41
2023-10-26T03:20:13.059Z,97222.50
2023-10-26T03:22:40.222Z,97224.06
2023-10-26T03:25:08.328Z,97215.00
2023-10-26T03:27:38.185Z,97223.81
2023-10-26T03:30:08.312Z,97185.13
2023-10-26T03:32:35.357Z,97218.19
2023-10-26T03:35:02.594Z,97216.56
2023-10-26T03:37:29.770Z,97218.31
2023-10-26T03:39:57.022Z,97204.59
2023-10-26T03:42:24.001Z,97202.13
2023-10-26T03:44:51.333Z,97204.00
2023-10-26T03:47:19.958Z,97217.56
2023-10-26T03:49:47.577Z,97228.06
2023-10-26T03:52:14.431Z,97209.50
2023-10-26T03:54:42.755Z,97226.91
2023-10-26T03:57:09.939Z,97205.25
2023-10-26T03:59:36.858Z,97215.38
2023-10-26T04:02:04.260Z,97210.94
2023-10-26T04:04:32.454Z,97212.09
2023-10-26T04:06:59.350Z,97213.88
2023-10-26T04:09:26.391Z,97198.09
2023-10-26T04:11:54.852Z,97202.59
2023-10-26T04:14:21.742Z,97188.34
2023-10-26T04:16:50.956Z,97182.06
2023-10-26T04:19:17.837Z,97183.88
2023-10-26T04:21:46.081Z,97180.44
2023-10-26T04:24:12.969Z,97190.38
2023-10-26T04:26:40.062Z,97195.69
2023-10-26T04:29:08.242Z,97181.53
2023-10-26T04:31:36.364Z,97193.03
2023-10-26T04:34:03.337Z,97180.66
2023-10-26T04:36:31.044Z,97179.69
2023-10-26T04:38:58.167Z,97181.72
2023-10-26T04:41:25.076Z,97176.84
2023-10-26T04:43:52.011Z,97177.34
2023-10-26T04:46:19.347Z,97199.00
2023-10-26T04:48:46.431Z,97177.22
2023-10-26T04:51:13.493Z,97187.22
2023-10-26T04:53:40.535Z,97186.75
2023-10-26T04:56:07.672Z,97174.38
2023-10-26T04:58:34.792Z,97182.50
2023-10-26T05:01:02.510Z,97167.31
2023-10-26T05:03:29.609Z,97165.09
2023-10-26T05:05:56.864Z,97165.78
2023-10-26T05:08:24.076Z,97172.63
2023-10-26T05:10:52.542Z,97166.72
2023-10-26T05:13:20.451Z,97167.44
2023-10-26T05:15:48.126Z,97143.97
2023-10-26T05:18:15.143Z,97169.59
2023-10-26T05:20:48.115Z,97159.47
2023-10-26T05:23:15.110Z,97159.22
2023-10-26T05:25:42.266Z,97153.13
2023-10-26T05:28:10.385Z,97157.47
2023-10-26T05:30:37.351Z,97148.88
2023-10-26T05:33:05.209Z,97142.88
2023-10-26T05:35:32.440Z,97160.13
2023-10-26T05:37:59.427Z,97163.69
2023-10-26T05:40:26.345Z,97153.31
2023-10-26T05:42:53.252Z,97135.09
2023-10-26T05:45:20.182Z,97147.69
2023-10-26T05:47:53.778Z,97150.72
2023-10-26T05:50:22.075Z,97139.91
2023-10-26T05:52:49.213Z,97148.25
2023-10-26T05:55:16.495Z,97153.19
2023-10-26T05:57:44.849Z,97140.22
2023-10-26T06:00:12.487Z,97138.81
2023-10-26T06:02:39.493Z,97138.59
2023-10-26T06:05:06.728Z,97133.41
2023-10-26T06:07:35.209Z,97094.94
2023-10-26T06:10:04.796Z,97112.84
2023-10-26T06:12:31.786Z,97125.06
2023-10-26T06:14:59.083Z,97144.59
2023-10-26T06:17:26.172Z,97137.19
2023-10-26T06:19:53.418Z,97136.34
2023-10-26T06:22:20.292Z,97134.47
2023-10-26T06:24:48.272Z,97134.13
2023-10-26T06:27:16.568Z,97137.38
2023-10-26T06:29:46.811Z,97125.50
2023-10-26T06:32:13.733Z,97131.00
2023-10-26T06:34:40.698Z,97118.78
2023-10-26T06:37:07.724Z,97138.09
2023-10-26T06:39:34.857Z,97143.50
2023-10-26T06:42:01.959Z,97144.44
2023-10-26T06:44:28.929Z,97144.16
2023-10-26T06:46:57.913Z,97136.66
2023-10-26T06:49:30.114Z,97119.50
2023-10-26T06:51:58.552Z,97139.56
2023-10-26T06:54:25.603Z,97140.25
2023-10-26T06:56:52.694Z,97133.22
2023-10-26T06:59:20.424Z,97135.88
2023-10-26T07:02:09.033Z,97150.44
2023-10-26T07:04:36.962Z,97140.31
2023-10-26T07:07:07.228Z,97152.66
2023-10-26T07:09:34.568Z,97138.19
2023-10-26T07:12:02.263Z,97152.84
2023-10-26T07:14:30.332Z,97129.31
2023-10-26T07:16:58.488Z,97137.84
2023-10-26T07:19:25.363Z,97137.41
2023-10-26T07:21:52.302Z,97149.91
2023-10-26T07:24:19.202Z,97147.31
2023-10-26T07:26:51.209Z,97151.19
2023-10-26T07:29:18.946Z,97147.63
2023-10-26T07:31:50.378Z,97139.97
2023-10-26T07:34:20.042Z,97154.78
2023-10-26T07:36:47.172Z,97134.53
2023-10-26T07:39:45.493Z,97155.34
2023-10-26T07:42:07.132Z,97142.25
2023-10-26T07:44:35.697Z,97147.19
2023-10-26T07:47:05.925Z,97149.06
2023-10-26T07:49:33.443Z,97152.13
2023-10-26T07:52:00.630Z,97141.72
2023-10-26T07:54:27.971Z,97136.81
2023-10-26T07:56:55.015Z,97132.69
2023-10-26T07:59:21.945Z,97133.13
2023-10-26T08:01:49.396Z,97136.16
2023-10-26T08:04:16.972Z,97141.81
2023-10-26T08:06:44.071Z,97124.00
2023-10-26T08:09:11.096Z,97120.22
2023-10-26T08:11:38.732Z,97119.94
2023-10-26T08:14:45.869Z,97118.88
2023-10-26T08:16:53.844Z,97126.28
2023-10-26T08:19:22.848Z,97111.03
2023-10-26T08:21:49.888Z,97108.44
2023-10-26T08:24:17.376Z,97129.56
2023-10-26T08:26:44.342Z,97121.09
2023-10-26T08:29:18.465Z,97118.94
2023-10-26T08:31:52.560Z,97118.94
2023-10-26T08:34:19.584Z,97110.72
2023-10-26T08:37:02.113Z,97116.47
2023-10-26T08:39:37.169Z,97124.13
2023-10-26T08:42:04.781Z,97131.22
2023-10-26T08:44:34.769Z,97113.44
2023-10-26T08:47:04.908Z,97119.75
2023-10-26T08:49:33.435Z,97125.25
2023-10-26T08:52:03.393Z,97110.19
2023-10-26T08:54:31.964Z,97136.78
2023-10-26T08:57:07.854Z,97143.84
2023-10-26T08:59:36.927Z,97150.00
2023-10-26T09:02:04.181Z,97142.91
2023-10-26T09:04:32.661Z,97144.25
2023-10-26T09:07:00.163Z,97139.63
2023-10-26T09:09:43.851Z,97128.53
2023-10-26T09:12:11.259Z,97128.78
2023-10-26T09:17:36.570Z,97119.53
2023-10-26T09:20:19.806Z,97139.22
2023-10-26T09:22:50.310Z,97133.59
2023-10-26T09:25:19.025Z,97143.31
2023-10-26T09:27:47.553Z,97146.31
2023-10-26T09:30:30.072Z,97143.91
2023-10-26T09:33:06.111Z,97140.44
2023-10-26T09:35:36.317Z,97135.44
2023-10-26T09:38:04.706Z,97130.28
2023-10-26T09:40:32.362Z,97123.31
2023-10-26T09:42:59.820Z,97131.09
2023-10-26T09:45:28.844Z,97135.28
2023-10-26T09:47:56.325Z,97129.00
2023-10-26T09:50:25.188Z,97137.47
2023-10-26T09:52:57.105Z,97131.44
2023-10-26T09:55:30.340Z,97169.50
2023-10-26T09:58:13.785Z,97164.00
2023-10-26T10:00:55.785Z,97170.94
2023-10-26T10:03:22.962Z,97157.06
2023-10-26T10:05:51.142Z,97154.53
2023-10-26T10:09:00.787Z,97129.00
2023-10-26T10:11:28.005Z,97114.22
2023-10-26T10:13:55.246Z,97101.38
2023-10-26T10:16:52.413Z,97124.09
2023-10-26T10:19:21.345Z,97127.25
2023-10-26T10:21:49.641Z,97112.88
2023-10-26T10:24:38.908Z,97106.06
2023-10-26T10:27:14.114Z,97098.16
2023-10-26T10:29:41.439Z,97106.63
2023-10-26T10:32:08.764Z,97095.41
2023-10-26T10:34:46.626Z,97094.84
2023-10-26T10:37:24.357Z,97094.16
2023-10-26T10:40:14.094Z,97102.22
2023-10-26T10:42:49.942Z,97108.69
2023-10-26T10:45:20.391Z,97107.41
2023-10-26T10:47:52.113Z,97115.06
2023-10-26T10:50:28.750Z,97110.53
2023-10-26T10:52:56.537Z,97108.34
2023-10-26T10:55:28.161Z,97136.56
2023-10-26T10:58:04.204Z,97144.34
2023-10-26T11:00:50.477Z,97122.47
2023-10-26T11:03:24.456Z,97123.84
2023-10-26T11:05:51.563Z,97101.94
2023-10-26T11:08:22.608Z,97119.22
2023-10-26T11:10:50.312Z,97118.53
2023-10-26T11:13:26.109Z,97124.28
2023-10-26T11:15:55.087Z,97108.00
2023-10-26T11:18:25.327Z,97116.63
2023-10-26T11:20:52.387Z,97104.47
2023-10-26T11:23:24.334Z,97096.09
2023-10-26T11:25:53.438Z,97100.66
2023-10-26T11:28:38.152Z,97094.06
2023-10-26T11:31:06.190Z,97095.19
2023-10-26T11:33:40.605Z,97108.31
2023-10-26T11:36:13.906Z,97098.84
2023-10-26T11:38:49.551Z,97109.56
2023-10-26T11:41:23.575Z,97095.59
2023-10-26T11:43:54.017Z,97120.63
2023-10-26T11:46:36.441Z,97112.53
2023-10-26T11:49:06.029Z,97130.22
2023-10-26T11:51:42.264Z,97122.13
2023-10-26T11:54:14.784Z,97123.06
2023-10-26T11:56:41.849Z,97122.56
2023-10-26T11:59:08.802Z,97126.78
2023-10-26T12:01:36.934Z,97113.22
2023-10-26T12:04:03.967Z,97089.41
2023-10-26T12:06:32.016Z,97076.16
2023-10-26T12:08:58.936Z,97086.69
2023-10-26T12:11:26.134Z,97079.56
2023-10-26T12:13:53.184Z,97075.91
2023-10-26T12:16:20.299Z,97067.00
2023-10-26T12:18:47.522Z,97070.00
2023-10-26T12:21:14.491Z,97067.00
2023-10-26T12:23:41.632Z,97062.19
2023-10-26T12:26:09.003Z,97051.13
2023-10-26T12:28:35.990Z,97056.06
2023-10-26T12:31:03.662Z,97057.16
2023-10-26T12:33:30.785Z,97060.97
2023-10-26T12:35:57.766Z,97044.41
2023-10-26T12:38:24.801Z,97039.91
2023-10-26T12:40:52.862Z,97035.25
2023-10-26T12:43:23.368Z,97031.13
2023-10-26T12:45:50.419Z,97033.06
2023-10-26T12:48:18.405Z,97027.84
2023-10-26T12:50:46.160Z,97031.69
2023-10-26T12:53:16.098Z,97013.88
2023-10-26T12:55:43.896Z,97014.66
2023-10-26T12:58:17.529Z,97019.63
2023-10-26T13:00:46.599Z,97023.16
2023-10-26T13:03:17.675Z,97012.75
2023-10-26T13:05:44.792Z,97015.75
2023-10-26T13:08:14.367Z,97019.88
2023-10-26T13:10:41.344Z,97023.44
2023-10-26T13:13:09.421Z,97012.88
2023-10-26T13:15:36.681Z,97011.13
2023-10-26T13:18:04.108Z,97005.09
2023-10-26T13:20:34.283Z,96997.81
2023-10-26T13:23:01.482Z,96992.75
2023-10-26T13:25:29.447Z,96999.28
2023-10-26T13:27:56.612Z,96981.25
2023-10-26T13:30:24.452Z,96996.84
2023-10-26T13:32:51.800Z,96985.59
2023-10-26T13:35:19.323Z,96989.03
2023-10-26T13:37:47.658Z,96985.03
2023-10-26T13:40:14.902Z,96990.78
2023-10-26T13:42:42.033Z,96979.41
2023-10-26T13:45:09.740Z,96968.31
2023-10-26T13:47:36.680Z,96981.59
2023-10-26T13:50:04.336Z,96969.91
2023-10-26T13:52:31.303Z,96974.97
2023-10-26T13:54:59.152Z,96978.41
2023-10-26T13:57:30.314Z,96969.66
2023-10-26T13:59:58.911Z,96970.88
2023-10-26T14:02:27.179Z,96975.25
2023-10-26T14:04:54.583Z,96967.47
2023-10-26T14:07:22.175Z,96979.53
2023-10-26T14:09:50.283Z,96952.31
2023-10-26T14:12:19.887Z,96960.47
2023-10-26T14:14:46.999Z,96958.81
2023-10-26T14:17:14.694Z,96963.63
2023-10-26T14:19:43.173Z,96966.91
2023-10-26T14:22:11.617Z,96965.91
2023-10-26T14:24:40.141Z,96958.34
2023-10-26T14:27:07.035Z,96956.47
2023-10-26T14:29:34.256Z,96960.03
2023-10-26T14:32:01.184Z,96958.03
2023-10-26T14:34:28.490Z,96948.75
2023-10-26T14:36:56.710Z,96937.50
2023-10-26T14:39:23.627Z,96943.03
2023-10-26T14:41:51.204Z,96952.72
2023-10-26T14:44:18.134Z,96935.91
2023-10-26T14:46:45.167Z,96971.03
2023-10-26T14:49:12.530Z,96949.53
2023-10-26T14:51:44.012Z,96967.03
2023-10-26T14:54:11.145Z,96951.09
2023-10-26T14:56:38.171Z,96936.97
2023-10-26T14:59:07.110Z,96948.06
2023-10-26T15:01:34.893Z,96958.47
2023-10-26T15:04:02.846Z,96946.06
2023-10-26T15:06:29.880Z,96950.78
2023-10-26T15:08:57.645Z,96952.41
2023-10-26T15:11:25.396Z,96942.53
2023-10-26T15:13:56.116Z,96954.16
2023-10-26T15:16:23.465Z,96943.91
2023-10-26T15:18:50.496Z,96941.59
2023-10-26T15:21:17.573Z,96924.00
2023-10-26T15:23:47.737Z,96936.00
2023-10-26T15:26:16.652Z,96944.72
2023-10-26T15:28:43.892Z,96944.19
2023-10-26T15:31:13.145Z,96949.09
2023-10-26T15:33:41.629Z,96931.91
2023-10-26T15:36:12.623Z,96937.22
2023-10-26T15:38:42.328Z,96935.56
2023-10-26T15:41:10.236Z,96945.31
2023-10-26T15:43:37.118Z,96947.09
2023-10-26T15:46:05.161Z,96939.28
2023-10-26T15:49:34.291Z,96949.72
2023-10-26T15:51:23.596Z,96948.97
2023-10-26T15:53:50.610Z,96965.03
2023-10-26T15:56:17.684Z,96959.59
2023-10-26T15:58:44.950Z,96956.47
2023-10-26T16:01:12.229Z,96958.31
2023-10-26T16:03:39.397Z,96968.97
2023-10-26T16:06:13.336Z,96966.91
2023-10-26T16:08:41.525Z,96974.47
2023-10-26T16:11:13.569Z,96971.88
2023-10-26T16:13:40.637Z,96968.59
2023-10-26T16:16:08.012Z,96973.63
2023-10-26T16:18:36.495Z,96984.22
2023-10-26T16:21:03.684Z,96973.16
2023-10-26T16:23:30.975Z,96986.50
2023-10-26T16:25:59.399Z,96992.56
2023-10-26T16:28:26.843Z,96973.66
2023-10-26T16:30:59.539Z,96987.91
2023-10-26T16:33:28.448Z,96969.44
2023-10-26T16:35:57.760Z,96984.91
2023-10-26T16:38:26.599Z,96979.03
2023-10-26T16:40:53.682Z,96980.69
2023-10-26T16:43:23.000Z,96977.78
2023-10-26T16:45:50.245Z,96975.47
2023-10-26T16:48:20.706Z,96977.78
2023-10-26T16:50:49.694Z,96971.81
2023-10-26T16:53:29.818Z,96977.31
2023-10-26T16:56:03.497Z,96993.59
2023-10-26T16:58:35.074Z,96991.50
2023-10-26T17:01:10.609Z,96993.47
2023-10-26T17:03:38.487Z,96996.59
2023-10-26T17:06:06.036Z,96987.03
2023-10-26T17:08:33.105Z,96984.72
2023-10-26T17:11:00.126Z,96994.84
2023-10-26T17:13:27.037Z,96995.94
2023-10-26T17:15:54.598Z,96983.06
2023-10-26T17:18:23.330Z,96990.88
2023-10-26T17:20:50.397Z,96988.28
2023-10-26T17:23:17.579Z,97001.13
2023-10-26T17:25:44.723Z,96986.06
2023-10-26T17:28:11.975Z,96982.22
2023-10-26T17:30:40.249Z,96978.56
2023-10-26T17:33:11.717Z,96966.91
2023-10-26T17:35:48.806Z,96984.34
2023-10-26T17:38:16.233Z,96980.13
2023-10-26T17:40:46.098Z,96963.31
2023-10-26T17:43:14.401Z,96980.38
2023-10-26T17:45:41.654Z,96991.72
2023-10-26T17:48:10.711Z,96996.63
2023-10-26T17:50:41.742Z,96991.31
2023-10-26T17:53:14.034Z,96997.91
2023-10-26T17:55:44.325Z,96989.84
2023-10-26T17:58:11.496Z,96984.22
2023-10-26T18:00:38.432Z,96993.50
2023-10-26T18:03:05.635Z,96999.66
2023-10-26T18:05:35.328Z,97005.41
2023-10-26T18:08:02.359Z,96999.38
2023-10-26T18:10:30.231Z,97004.19
2023-10-26T18:12:57.598Z,97005.56
2023-10-26T18:15:24.531Z,96995.69
2023-10-26T18:17:51.470Z,96984.50
2023-10-26T18:20:23.125Z,96986.03
2023-10-26T18:22:50.114Z,96994.91
2023-10-26T18:28:12.235Z,96984.81
2023-10-26T18:30:39.223Z,96984.81
2023-10-26T18:33:06.220Z,96976.09
2023-10-26T18:35:33.633Z,96989.59
2023-10-26T18:38:01.602Z,96987.03
2023-10-26T18:40:28.587Z,96996.84
2023-10-26T18:42:55.608Z,96982.78
2023-10-26T18:45:22.642Z,96987.31
2023-10-26T18:47:51.739Z,96984.19
2023-10-26T18:50:18.778Z,96994.97
2023-10-26T18:52:45.699Z,96983.50
2023-10-26T18:55:12.722Z,96977.16
2023-10-26T18:57:39.743Z,96994.94
2023-10-26T19:00:09.042Z,96990.56
2023-10-26T19:02:36.540Z,96984.25
2023-10-26T19:05:06.077Z,96978.00
2023-10-26T19:07:33.012Z,96983.84
2023-10-26T19:10:00.025Z,96985.13
2023-10-26T19:12:27.155Z,96984.81
2023-10-26T19:14:54.423Z,96985.22
2023-10-26T19:17:21.483Z,96971.91
2023-10-26T19:19:52.138Z,96993.41
2023-10-26T19:22:19.037Z,96984.81
2023-10-26T19:24:48.648Z,96983.16
2023-10-26T19:27:16.385Z,96993.94
2023-10-26T19:29:43.545Z,96974.53
2023-10-26T19:32:10.588Z,96990.25
2023-10-26T19:34:37.773Z,97003.94
2023-10-26T19:37:04.874Z,96985.34
2023-10-26T19:39:33.667Z,96983.13
2023-10-26T19:42:00.604Z,96978.63
2023-10-26T19:44:27.497Z,96995.69
2023-10-26T19:46:54.563Z,96989.00
2023-10-26T19:49:21.741Z,96989.13
2023-10-26T19:51:48.766Z,96974.38
2023-10-26T19:54:15.809Z,96985.59
2023-10-26T19:56:47.568Z,96980.94
2023-10-26T19:59:15.831Z,96979.69
2023-10-26T20:04:41.883Z,96988.19
2023-10-26T20:07:09.035Z,96966.72
2023-10-26T20:09:37.076Z,96971.38
2023-10-26T20:12:04.574Z,96973.56
2023-10-26T20:14:31.474Z,96972.22
2023-10-26T20:16:58.820Z,96973.84
2023-10-26T20:19:25.728Z,96964.00
2023-10-26T20:21:57.970Z,96973.97
2023-10-26T20:24:27.818Z,96969.75
2023-10-26T20:26:56.485Z,96960.19
2023-10-26T20:29:23.714Z,96965.38
2023-10-26T20:31:51.146Z,96957.03
2023-10-26T20:34:18.266Z,96957.59
2023-10-26T20:36:52.448Z,96944.03
2023-10-26T20:39:19.558Z,96942.69
2023-10-26T20:41:46.699Z,96943.34
2023-10-26T20:44:16.923Z,96943.75
2023-10-26T20:46:44.467Z,96931.56
2023-10-26T20:49:14.082Z,96908.75
2023-10-26T20:51:45.132Z,96926.50
2023-10-26T20:54:25.255Z,96906.69
2023-10-26T20:56:55.691Z,96903.16
2023-10-26T20:59:23.045Z,96902.31
2023-10-26T21:01:50.118Z,96887.53
2023-10-26T21:04:17.128Z,96892.59
2023-10-26T21:06:48.706Z,96889.59
2023-10-26T21:09:15.870Z,96879.59
2023-10-26T21:11:42.834Z,96894.50
2023-10-26T21:14:12.089Z,96876.44
2023-10-26T21:16:40.027Z,96867.69
2023-10-26T21:19:07.306Z,96876.69
2023-10-26T21:24:25.729Z,96873.00
2023-10-26T21:26:52.914Z,96857.72
2023-10-26T21:29:19.944Z,96873.94
2023-10-26T21:31:49.340Z,96867.81
2023-10-26T21:34:16.378Z,96867.38
2023-10-26T21:36:43.697Z,96867.81
2023-10-26T21:39:14.074Z,96862.22
2023-10-26T21:41:41.254Z,96857.19
2023-10-26T21:44:08.297Z,96858.41
2023-10-26T21:46:35.576Z,96857.97
2023-10-26T21:49:02.634Z,96860.25
2023-10-26T21:51:29.620Z,96850.00
2023-10-26T21:53:57.139Z,96857.56
2023-10-26T21:56:24.306Z,96858.41
2023-10-26T21:58:56.689Z,96852.47
2023-10-26T22:01:23.943Z,96860.91
2023-10-26T22:04:06.418Z,96868.69
2023-10-26T22:06:38.367Z,96860.19
2023-10-26T22:09:07.193Z,96858.28
2023-10-26T22:11:35.574Z,96860.19
2023-10-26T22:14:03.184Z,96852.94
2023-10-26T22:16:30.242Z,96842.84
2023-10-26T22:18:57.314Z,96846.81
2023-10-26T22:21:25.498Z,96839.41
2023-10-26T22:23:52.435Z,96835.97
2023-10-26T22:26:19.390Z,96833.50
2023-10-26T22:28:46.721Z,96833.50
2023-10-26T22:31:13.681Z,96829.22
2023-10-26T22:33:41.346Z,96829.22
2023-10-26T22:36:13.710Z,96832.91
2023-10-26T22:38:40.912Z,96818.72
2023-10-26T22:41:11.480Z,96825.41
2023-10-26T22:43:38.931Z,96820.88
2023-10-26T22:46:06.766Z,96816.34
2023-10-26T22:48:34.002Z,96815.69
2023-10-26T22:51:01.369Z,96811.28
2023-10-26T22:53:28.333Z,96802.94
2023-10-26T22:55:55.595Z,96802.69
2023-10-26T22:58:24.288Z,96799.81
2023-10-26T23:00:51.364Z,96815.34
2023-10-26T23:03:18.368Z,96820.13
2023-10-26T23:05:45.239Z,96807.69
2023-10-26T23:08:14.513Z,96810.72
2023-10-26T23:10:42.488Z,96799.13
2023-10-26T23:13:09.748Z,96804.84
2023-10-26T23:15:36.748Z,96803.75
2023-10-26T23:18:04.045Z,96805.09
2023-10-26T23:20:31.062Z,96809.47
2023-10-26T23:22:57.965Z,96800.47
2023-10-26T23:25:25.045Z,96809.06
2023-10-26T23:27:53.745Z,96798.59
2023-10-26T23:30:20.711Z,96803.88
2023-10-26T23:32:48.292Z,96799.81
2023-10-26T23:35:15.265Z,96794.44
2023-10-26T23:37:42.204Z,96808.38
2023-10-26T23:40:09.745Z,96800.47
2023-10-26T23:42:36.687Z,96803.75
2023-10-26T23:45:05.720Z,96802.41
2023-10-26T23:47:32.600Z,96809.47
2023-10-26T23:50:00.457Z,96800.97
2023-10-26T23:52:27.412Z,96824.94
2023-10-26T23:54:54.607Z,96826.84
2023-10-26T23:57:21.792Z,96830.94
2023-10-26T23:59:49.819Z,96829.13
